Aérodrome :
LOGIN :

S'inscrire | Disclaimer

   EN    FR    IT 

 










Légende :    VFR   VFR Marginal   IFR   IFR Intensif   IFR Très Intensif
Visi : 
Plafond : 
>= 8 km
>= 3000ft
5 à 8 km
1000 à 3000 ft
1500m à 5 km
500 à 1000 ft
800 à 1500m
200 à 500 ft
< 800m
< 200 ft
Symboles :   Orages  Brouillard  Fortes neiges  Fortes précipitations  Vent > 20 kt
SIGMETs :   Divers  Orages  Givrage  Turbulence  Onde Orograph.  Cendres Volcan.






- Altitude de l'aérodrome : 266 ft
- Code IATA : NCL


EGNT - Newcastle

DERNIER METAR :
  • 011050Z 28010KT 9999 FEW025 BKN040 08/01 Q1021

METARs EXPIRÉS :
  • 010950Z 28009KT 9999 FEW020 BKN035 08/01 Q1022
  • 010920Z 27008KT 9999 FEW020 SCT045 08/01 Q1022
  • 010850Z 28008KT 9999 SCT047 07/02 Q1022
  • 010820Z 28009KT 9999 SCT045 06/03 Q1022

TAF TAF EGNT
Valide du 01 à 08h jusqu'au 01 à 13h UTC


010815Z 0108/0113 27008KT CAVOK
TEMPO 0108/0113 BKN040
ATIS : +44 191 214 3400



MET'MAP, la Météo Aéronautique d'un coup d'oeil ! - Copyright ORBIFLY Décembre 2007 - Disclaimer

ORBIFLY MET'MAP TEAM :

Programmation & Développement : Alexandra Zaïnal
Sur une idée originale de : Baudouin d'Aumeries
Assistance à la programmation : Marc-Olivier Méhu
Soutien technique & logistique : Manuel Goepfert

Contact : metmap@orbifly.com




SOURCES & CREDITS :

   NOAA